createdAt,value
2019-06-07T06:06:05.815Z,17.20
2019-06-07T06:08:42.492Z,17.10
2019-06-07T06:11:17.490Z,17.10
2019-06-07T06:14:06.859Z,17.30
2019-06-07T06:16:28.992Z,17.40
2019-06-07T06:19:03.943Z,17.60
2019-06-07T06:21:40.828Z,17.80
2019-06-07T06:24:15.490Z,17.90
2019-06-07T06:26:54.849Z,17.90
2019-06-07T06:29:28.075Z,17.90
2019-06-07T06:32:40.454Z,18.00
2019-06-07T06:34:43.514Z,18.20
2019-06-07T06:37:16.192Z,18.10
2019-06-07T06:39:51.144Z,18.30
2019-06-07T06:42:26.141Z,18.40
2019-06-07T06:45:01.092Z,18.50
2019-06-07T06:47:36.154Z,18.60
2019-06-07T06:50:10.898Z,18.60
2019-06-07T06:52:48.610Z,18.70
2019-06-07T06:55:22.810Z,18.70
2019-06-07T06:57:57.791Z,18.80
2019-06-07T07:00:46.226Z,18.80
2019-06-07T07:05:55.494Z,18.90
2019-06-07T07:08:30.476Z,19.00
2019-06-07T07:11:04.645Z,19.00
2019-06-07T07:13:39.487Z,19.10
2019-06-07T07:16:16.224Z,19.30
2019-06-07T07:18:52.890Z,19.50
2019-06-07T07:21:26.807Z,19.50
2019-06-07T07:24:20.430Z,19.60
2019-06-07T07:26:37.393Z,19.70
2019-06-07T07:29:12.480Z,19.70
2019-06-07T07:31:50.829Z,20.00
2019-06-07T07:34:34.648Z,20.10
2019-06-07T07:37:00.086Z,20.00
2019-06-07T07:39:36.196Z,20.10
2019-06-07T07:42:20.713Z,20.20
2019-06-07T07:44:49.057Z,20.50
2019-06-07T07:47:23.409Z,20.80
2019-06-07T07:49:59.385Z,20.90
2019-06-07T08:59:25.286Z,24.70
2019-06-07T09:02:05.783Z,25.20
2019-06-07T09:04:37.127Z,25.50
2019-06-07T09:07:19.476Z,25.50
2019-06-07T09:09:48.773Z,25.10
2019-06-07T09:12:23.702Z,25.50
2019-06-07T09:15:12.083Z,25.60
2019-06-07T09:17:35.282Z,25.80
2019-06-07T09:20:35.279Z,25.80
2019-06-07T09:22:48.293Z,25.90
2019-06-07T09:25:23.235Z,26.10
2019-06-07T09:28:04.264Z,26.50
2019-06-07T09:30:41.045Z,26.80
2019-06-07T09:33:16.009Z,27.20
2019-06-07T09:35:51.020Z,27.30
2019-06-07T09:38:26.812Z,26.90
2019-06-07T09:41:03.164Z,26.80
2019-06-07T09:46:16.509Z,26.20
2019-06-07T09:51:28.413Z,26.20
2019-06-07T09:54:06.901Z,25.50
2019-06-07T09:56:39.971Z,25.70
2019-06-07T09:59:14.953Z,26.80
2019-06-07T10:01:50.015Z,27.20
2019-06-07T10:04:31.410Z,26.90
2019-06-07T10:07:09.042Z,27.00
2019-06-07T10:12:14.996Z,28.20
2019-06-07T10:14:49.997Z,28.50
2019-06-07T10:17:24.944Z,28.90
2019-06-07T10:20:00.571Z,28.60
2019-06-07T10:22:36.662Z,29.10
2019-06-07T10:25:11.985Z,29.70
2019-06-07T10:27:46.942Z,30.40
2019-06-07T10:30:22.373Z,30.20
2019-06-07T10:32:57.325Z,29.80
2019-06-07T10:35:32.375Z,30.60
2019-06-07T10:38:08.529Z,30.20
2019-06-07T10:40:43.606Z,29.90
2019-06-07T10:43:18.559Z,30.60
2019-06-07T10:45:53.627Z,30.80
2019-06-07T10:48:28.502Z,29.80
2019-06-07T10:51:04.238Z,29.90
2019-06-07T10:53:39.401Z,30.30
2019-06-07T10:56:14.538Z,30.00
2019-06-07T10:58:49.543Z,30.40
2019-06-07T11:01:24.602Z,31.10
2019-06-07T11:03:59.785Z,30.00
2019-06-07T11:06:35.001Z,31.50
2019-06-07T11:09:10.054Z,32.50
2019-06-07T11:11:45.193Z,32.10
2019-06-07T11:14:20.510Z,32.70
2019-06-07T11:16:55.789Z,33.00
2019-06-07T11:19:30.761Z,33.50
2019-06-07T11:22:06.102Z,32.90
2019-06-07T11:24:41.284Z,33.40
2019-06-07T11:27:16.590Z,33.20
2019-06-07T11:29:51.569Z,33.60
2019-06-07T11:32:26.581Z,33.80
2019-06-07T11:35:01.545Z,33.60
2019-06-07T11:37:36.935Z,33.10
2019-06-07T11:40:34.833Z,31.80
2019-06-07T11:42:52.549Z,31.00
2019-06-07T11:45:25.855Z,30.10
2019-06-07T11:48:00.876Z,29.60
2019-06-07T11:50:35.832Z,29.10
2019-06-07T11:53:10.840Z,28.60
2019-06-07T11:55:47.544Z,28.30
2019-06-07T11:58:22.532Z,29.40
2019-06-07T12:00:57.535Z,29.20
2019-06-07T12:03:33.648Z,31.30
2019-06-07T12:06:09.866Z,31.60
2019-06-07T12:08:45.062Z,30.80
2019-06-07T12:11:20.204Z,29.50
2019-06-07T12:13:55.427Z,29.90
2019-06-07T12:16:30.417Z,29.10
2019-06-07T12:19:05.592Z,28.00
2019-06-07T12:21:40.521Z,28.50
2019-06-07T12:24:16.244Z,28.60
2019-06-07T12:26:51.308Z,28.60
2019-06-07T12:29:26.289Z,28.60
2019-06-07T12:32:01.249Z,29.70
2019-06-07T12:34:36.414Z,31.00
2019-06-07T12:37:11.742Z,30.00
2019-06-07T12:39:46.793Z,29.20
2019-06-07T12:42:22.703Z,29.60
2019-06-07T12:44:57.722Z,29.60
2019-06-07T12:47:32.715Z,29.10
2019-06-07T12:50:11.345Z,28.70
2019-06-07T12:52:46.666Z,28.10
2019-06-07T12:55:22.676Z,27.70
2019-06-07T12:57:58.226Z,28.30
2019-06-07T13:00:33.211Z,30.10
2019-06-07T13:03:08.264Z,31.20
2019-06-07T13:05:43.264Z,31.90
2019-06-07T13:08:19.801Z,32.20
2019-06-07T13:10:55.687Z,32.80
2019-06-07T13:13:33.588Z,34.30
2019-06-07T13:16:09.267Z,34.50
2019-06-07T13:18:46.318Z,34.70
2019-06-07T13:21:22.364Z,34.10
2019-06-07T13:23:59.255Z,34.10
2019-06-07T13:26:34.696Z,33.40
2019-06-07T13:29:09.797Z,34.20
2019-06-07T13:31:46.300Z,34.20
2019-06-07T13:34:24.167Z,32.70
2019-06-07T13:36:59.950Z,31.80
2019-06-07T13:39:35.293Z,32.20
2019-06-07T13:42:10.639Z,32.60
2019-06-07T13:44:45.975Z,32.90
2019-06-07T13:47:21.421Z,33.20
2019-06-07T13:49:56.974Z,32.70
2019-06-07T13:52:32.406Z,33.30
2019-06-07T13:55:08.772Z,31.70
2019-06-07T13:57:45.647Z,32.30
2019-06-07T14:00:22.971Z,32.10
2019-06-07T14:02:58.177Z,31.80
2019-06-07T14:05:33.509Z,31.30
2019-06-07T14:08:08.854Z,30.50
2019-06-07T14:10:44.401Z,30.70
2019-06-07T14:13:19.842Z,31.00
2019-06-07T14:15:54.905Z,30.50
2019-06-07T14:18:30.621Z,30.70
2019-06-07T14:21:06.379Z,31.00
2019-06-07T14:23:49.093Z,31.00
2019-06-07T14:26:21.257Z,31.30
2019-06-07T14:28:58.442Z,31.40
2019-06-07T14:31:33.919Z,31.80
2019-06-07T14:34:09.611Z,32.00
2019-06-07T14:36:45.082Z,32.10
2019-06-07T14:39:24.931Z,32.20
2019-06-07T14:42:09.217Z,32.00
2019-06-07T14:44:37.860Z,32.30
2019-06-07T14:47:13.614Z,33.00
2019-06-07T14:49:50.816Z,32.80
2019-06-07T14:52:26.550Z,32.60
2019-06-07T14:55:02.197Z,32.80
2019-06-07T14:57:38.664Z,32.50
2019-06-07T15:00:15.247Z,32.10
2019-06-07T15:02:51.295Z,32.30
2019-06-07T15:05:32.966Z,31.70
2019-06-07T15:08:08.739Z,31.80
2019-06-07T15:10:45.408Z,31.80
2019-06-07T15:13:20.852Z,31.40
2019-06-07T15:15:56.295Z,31.30
2019-06-07T15:18:31.817Z,31.00
2019-06-07T15:21:07.493Z,30.70
2019-06-07T15:23:42.933Z,30.70
2019-06-07T15:26:17.979Z,30.60
2019-06-07T15:28:53.102Z,30.60
2019-06-07T15:31:29.801Z,30.40
2019-06-07T15:34:05.526Z,30.40
2019-06-07T15:36:40.984Z,30.00
2019-06-07T15:39:16.314Z,30.10
2019-06-07T15:41:51.757Z,29.90
2019-06-07T15:44:27.093Z,29.50
2019-06-07T15:47:03.971Z,29.40
2019-06-07T15:49:40.323Z,29.30
2019-06-07T15:52:17.365Z,29.30
2019-06-07T15:54:52.757Z,29.20
2019-06-07T15:57:30.957Z,29.10
2019-06-07T16:00:11.569Z,29.00
2019-06-07T16:02:47.387Z,29.10
2019-06-07T16:05:23.275Z,28.90
2019-06-07T16:07:58.882Z,28.70
2019-06-07T16:10:36.716Z,28.70
2019-06-07T16:13:12.535Z,28.60
2019-06-07T16:15:48.082Z,28.70
2019-06-07T16:18:23.637Z,28.60
2019-06-07T16:20:59.784Z,28.70
2019-06-07T16:23:35.740Z,28.50
2019-06-07T16:26:11.387Z,28.40
2019-06-07T16:28:46.935Z,28.20
2019-06-07T16:31:24.016Z,28.20
2019-06-07T16:33:59.571Z,28.10
2019-06-07T16:36:36.100Z,27.90
2019-06-07T16:39:11.883Z,28.00
2019-06-07T16:41:48.845Z,27.90
2019-06-07T16:44:24.511Z,27.80
2019-06-07T16:46:59.852Z,27.60
2019-06-07T16:49:35.092Z,27.50
2019-06-07T16:52:11.147Z,27.40
2019-06-07T16:54:47.606Z,27.10
2019-06-07T16:57:24.490Z,27.10
2019-06-07T17:00:00.037Z,27.20
2019-06-07T17:02:35.469Z,27.00
2019-06-07T17:05:11.302Z,27.00
2019-06-07T17:07:48.770Z,26.90
2019-06-07T17:10:24.062Z,26.70
2019-06-07T17:12:59.812Z,26.80
2019-06-07T17:15:35.505Z,26.70
2019-06-07T17:18:12.543Z,26.50
2019-06-07T17:20:49.476Z,26.40
2019-06-07T17:23:25.171Z,26.30
2019-06-07T17:26:02.871Z,26.20
2019-06-07T17:28:40.031Z,26.10
2019-06-07T17:31:17.852Z,25.90
2019-06-07T17:33:53.625Z,25.80
2019-06-07T17:36:31.780Z,25.70
2019-06-07T17:39:08.827Z,25.60
2019-06-07T17:41:58.609Z,25.60
2019-06-07T17:44:24.794Z,25.40
2019-06-07T17:47:00.338Z,25.40
2019-06-07T17:49:39.212Z,25.30
2019-06-07T17:52:14.810Z,25.20
2019-06-07T17:54:50.356Z,25.10
2019-06-07T17:57:26.516Z,25.10
2019-06-07T18:00:27.803Z,25.00
2019-06-07T18:02:42.644Z,24.90
2019-06-07T18:05:19.401Z,24.90
2019-06-07T18:07:57.317Z,24.80
2019-06-07T18:10:40.935Z,24.70
2019-06-07T18:13:16.589Z,24.70
2019-06-07T18:15:57.254Z,24.60
2019-06-07T18:18:31.464Z,24.50
2019-06-07T18:21:07.727Z,24.40
2019-06-07T18:23:43.378Z,24.30
2019-06-07T18:26:20.179Z,24.30
2019-06-07T18:28:55.796Z,24.20
2019-06-07T18:31:31.343Z,24.20
2019-06-07T18:34:08.369Z,24.10
2019-06-07T18:36:43.970Z,24.10
2019-06-07T18:39:20.177Z,24.00
2019-06-07T18:41:55.883Z,23.90
2019-06-07T18:44:33.031Z,23.90
2019-06-07T18:47:08.638Z,23.90
2019-06-07T18:49:44.261Z,23.80
2019-06-07T18:52:21.463Z,23.70
2019-06-07T18:54:56.988Z,23.70
2019-06-07T18:57:34.594Z,23.50
2019-06-07T19:02:54.016Z,23.40
2019-06-07T19:08:00.016Z,23.30
2019-06-07T19:10:35.830Z,23.30
2019-06-07T19:13:12.982Z,23.20
2019-06-07T19:15:49.356Z,23.10
2019-06-07T19:18:25.296Z,23.10
2019-06-07T19:21:03.783Z,23.00
2019-06-07T19:23:41.788Z,22.90
2019-06-07T19:26:17.463Z,22.90
2019-06-07T19:28:53.112Z,22.80
2019-06-07T19:31:28.863Z,22.60
2019-06-07T19:34:08.300Z,22.50
2019-06-07T19:36:48.810Z,22.60
2019-06-07T19:39:22.975Z,22.40
2019-06-07T19:41:58.624Z,22.30
2019-06-07T19:44:34.408Z,22.40
2019-06-07T19:47:10.568Z,22.30
2019-06-07T19:49:46.183Z,22.20
2019-06-07T19:52:23.365Z,22.20
2019-06-07T19:54:59.844Z,22.10
2019-06-07T19:57:37.535Z,22.00
2019-06-07T20:00:14.900Z,21.80
2019-06-07T20:02:50.567Z,21.90
2019-06-07T20:05:26.222Z,21.90
2019-06-07T20:08:02.803Z,22.00
2019-06-07T20:10:38.741Z,21.90
2019-06-07T20:13:14.284Z,21.90
2019-06-07T20:15:49.933Z,21.90
2019-06-07T20:18:27.867Z,21.80
2019-06-07T20:21:02.971Z,21.70
2019-06-07T20:23:39.643Z,21.70
2019-06-07T20:26:15.274Z,21.70
2019-06-07T20:28:50.839Z,21.60
2019-06-07T20:31:26.596Z,21.60
2019-06-07T20:34:04.191Z,21.60
2019-06-07T20:36:41.709Z,21.50
2019-06-07T20:39:20.144Z,21.50
2019-06-07T20:41:57.158Z,21.50
2019-06-07T20:44:32.916Z,21.40
2019-06-07T20:47:11.267Z,21.40
2019-06-07T20:49:48.106Z,21.30
2019-06-07T20:52:23.755Z,21.30
2019-06-07T20:55:00.460Z,21.30
2019-06-07T20:57:38.846Z,21.20
2019-06-07T21:00:21.359Z,21.20
2019-06-07T21:02:54.229Z,21.30
2019-06-07T21:05:31.592Z,21.20
2019-06-07T21:08:09.801Z,21.10
2019-06-07T21:10:44.215Z,21.20
2019-06-07T21:13:21.202Z,21.10
2019-06-07T21:15:56.742Z,21.20
2019-06-07T21:18:32.494Z,21.10
2019-06-07T21:21:08.572Z,21.10
2019-06-07T21:23:44.300Z,21.10
2019-06-07T21:26:19.848Z,21.10
2019-06-07T21:28:55.394Z,21.00
